KCYS

Cheyenne Regional Airport

Airport
ICAO code
KCYS
IATA Code
CYS
Summary
ICAO Region
NAM
ICAO Territory
Location

Cheyenne, Wyoming

Serving
Cheyenne
Elevation
6159 ft
Coordinates
41° 9' 21" N , 104° 48' 36" W
KCC
Airport CFIT
Altimeter Temperature Error Correction
Airport RE
Hot and High Operations
Metar
KCYS 250353Z 20008KT 10SM BKN110 14/M01 A2990 RMK AO2 SLP068 T01391011

Description

Cheyenne Regional Airport, also known as Jerry Olson Field, is a joint use civil-military (ANG) airport located 1 nm north of the central business district of Cheyenne, in Laramie County, Wyoming, USA.

Airport map

Aerial View

SKYbrary Partners:

Safety knowledge contributed by: